sensor_id;sensor_type;location;lat;lon;timestamp;P1;durP1;ratioP1;P2;durP2;ratioP2
1350;SDS011;669;50.206;9.998;2023-08-06T00:02:10;5.60;;;5.10;;
1350;SDS011;669;50.206;9.998;2023-08-06T00:04:38;5.47;;;5.03;;
1350;SDS011;669;50.206;9.998;2023-08-06T00:07:06;4.30;;;4.00;;
1350;SDS011;669;50.206;9.998;2023-08-06T00:09:35;4.57;;;4.23;;
1350;SDS011;669;50.206;9.998;2023-08-06T00:12:03;4.50;;;4.20;;
1350;SDS011;669;50.206;9.998;2023-08-06T00:14:32;4.57;;;4.27;;
1350;SDS011;669;50.206;9.998;2023-08-06T00:17:00;5.40;;;4.90;;
1350;SDS011;669;50.206;9.998;2023-08-06T00:19:28;5.53;;;5.03;;
1350;SDS011;669;50.206;9.998;2023-08-06T00:21:56;5.10;;;4.57;;
1350;SDS011;669;50.206;9.998;2023-08-06T00:24:24;4.40;;;4.10;;
1350;SDS011;669;50.206;9.998;2023-08-06T00:26:53;3.83;;;3.53;;
1350;SDS011;669;50.206;9.998;2023-08-06T00:29:21;3.90;;;3.70;;
1350;SDS011;669;50.206;9.998;2023-08-06T00:31:49;3.97;;;3.67;;
1350;SDS011;669;50.206;9.998;2023-08-06T00:34:17;3.90;;;3.70;;
1350;SDS011;669;50.206;9.998;2023-08-06T00:36:45;3.10;;;2.90;;
1350;SDS011;669;50.206;9.998;2023-08-06T00:39:14;3.37;;;3.17;;
1350;SDS011;669;50.206;9.998;2023-08-06T00:41:42;3.50;;;3.30;;
1350;SDS011;669;50.206;9.998;2023-08-06T00:44:11;3.70;;;3.40;;
1350;SDS011;669;50.206;9.998;2023-08-06T00:46:39;3.80;;;3.50;;
1350;SDS011;669;50.206;9.998;2023-08-06T00:49:07;4.20;;;3.90;;
1350;SDS011;669;50.206;9.998;2023-08-06T00:51:35;4.57;;;4.03;;
1350;SDS011;669;50.206;9.998;2023-08-06T00:54:03;4.20;;;3.90;;
1350;SDS011;669;50.206;9.998;2023-08-06T00:56:31;4.10;;;3.80;;
1350;SDS011;669;50.206;9.998;2023-08-06T00:59:01;3.67;;;3.37;;
1350;SDS011;669;50.206;9.998;2023-08-06T01:01:32;3.90;;;3.60;;
1350;SDS011;669;50.206;9.998;2023-08-06T01:04:00;4.60;;;4.20;;
1350;SDS011;669;50.206;9.998;2023-08-06T01:06:35;4.20;;;3.90;;
1350;SDS011;669;50.206;9.998;2023-08-06T01:09:11;4.03;;;3.70;;
1350;SDS011;669;50.206;9.998;2023-08-06T01:11:57;4.50;;;4.13;;
1350;SDS011;669;50.206;9.998;2023-08-06T01:14:33;3.97;;;3.77;;
1350;SDS011;669;50.206;9.998;2023-08-06T01:17:11;4.17;;;3.87;;
1350;SDS011;669;50.206;9.998;2023-08-06T01:19:40;4.13;;;3.83;;
1350;SDS011;669;50.206;9.998;2023-08-06T01:22:09;3.03;;;2.83;;
1350;SDS011;669;50.206;9.998;2023-08-06T01:24:37;3.03;;;2.83;;
1350;SDS011;669;50.206;9.998;2023-08-06T01:27:06;2.53;;;2.40;;
1350;SDS011;669;50.206;9.998;2023-08-06T01:29:39;3.30;;;3.10;;
1350;SDS011;669;50.206;9.998;2023-08-06T01:32:12;2.70;;;2.50;;
1350;SDS011;669;50.206;9.998;2023-08-06T01:34:43;3.10;;;2.90;;
1350;SDS011;669;50.206;9.998;2023-08-06T01:37:15;2.80;;;2.60;;
1350;SDS011;669;50.206;9.998;2023-08-06T01:39:43;2.90;;;2.70;;
1350;SDS011;669;50.206;9.998;2023-08-06T01:42:12;2.40;;;2.30;;
1350;SDS011;669;50.206;9.998;2023-08-06T01:44:40;2.73;;;2.57;;
1350;SDS011;669;50.206;9.998;2023-08-06T01:47:08;2.70;;;2.50;;
1350;SDS011;669;50.206;9.998;2023-08-06T01:49:36;2.63;;;2.50;;
1350;SDS011;669;50.206;9.998;2023-08-06T01:52:04;3.23;;;3.03;;
1350;SDS011;669;50.206;9.998;2023-08-06T01:54:34;3.00;;;2.80;;
1350;SDS011;669;50.206;9.998;2023-08-06T01:57:02;3.30;;;3.10;;
1350;SDS011;669;50.206;9.998;2023-08-06T01:59:30;2.83;;;2.63;;
1350;SDS011;669;50.206;9.998;2023-08-06T02:01:58;3.07;;;2.87;;
1350;SDS011;669;50.206;9.998;2023-08-06T02:04:26;3.00;;;2.80;;
1350;SDS011;669;50.206;9.998;2023-08-06T02:06:55;4.13;;;3.70;;
1350;SDS011;669;50.206;9.998;2023-08-06T02:09:23;2.80;;;2.60;;
1350;SDS011;669;50.206;9.998;2023-08-06T02:11:52;3.93;;;3.57;;
1350;SDS011;669;50.206;9.998;2023-08-06T02:14:20;3.17;;;2.97;;
1350;SDS011;669;50.206;9.998;2023-08-06T02:16:48;3.47;;;3.17;;
1350;SDS011;669;50.206;9.998;2023-08-06T02:19:16;4.30;;;3.93;;
1350;SDS011;669;50.206;9.998;2023-08-06T02:21:44;3.73;;;3.43;;
1350;SDS011;669;50.206;9.998;2023-08-06T02:24:12;3.40;;;2.90;;
1350;SDS011;669;50.206;9.998;2023-08-06T02:26:40;3.17;;;2.97;;
1350;SDS011;669;50.206;9.998;2023-08-06T02:29:09;3.20;;;3.00;;
1350;SDS011;669;50.206;9.998;2023-08-06T02:31:37;3.20;;;3.00;;
1350;SDS011;669;50.206;9.998;2023-08-06T02:34:05;2.63;;;2.43;;
1350;SDS011;669;50.206;9.998;2023-08-06T02:36:34;3.30;;;3.10;;
1350;SDS011;669;50.206;9.998;2023-08-06T02:39:02;2.50;;;2.30;;
1350;SDS011;669;50.206;9.998;2023-08-06T02:41:30;2.43;;;2.33;;
1350;SDS011;669;50.206;9.998;2023-08-06T02:43:58;3.17;;;2.97;;
1350;SDS011;669;50.206;9.998;2023-08-06T02:46:27;2.87;;;2.77;;
1350;SDS011;669;50.206;9.998;2023-08-06T02:48:55;3.07;;;2.87;;
1350;SDS011;669;50.206;9.998;2023-08-06T02:51:23;3.17;;;2.90;;
1350;SDS011;669;50.206;9.998;2023-08-06T02:53:51;3.50;;;3.20;;
1350;SDS011;669;50.206;9.998;2023-08-06T02:56:19;2.83;;;2.63;;
1350;SDS011;669;50.206;9.998;2023-08-06T02:58:47;2.70;;;2.50;;
1350;SDS011;669;50.206;9.998;2023-08-06T03:01:15;3.10;;;2.73;;
1350;SDS011;669;50.206;9.998;2023-08-06T03:03:45;4.67;;;4.33;;
1350;SDS011;669;50.206;9.998;2023-08-06T03:06:13;5.90;;;5.40;;
1350;SDS011;669;50.206;9.998;2023-08-06T03:08:41;5.93;;;4.93;;
1350;SDS011;669;50.206;9.998;2023-08-06T03:11:08;5.93;;;4.73;;
1350;SDS011;669;50.206;9.998;2023-08-06T03:13:36;6.80;;;6.20;;
1350;SDS011;669;50.206;9.998;2023-08-06T03:16:04;8.73;;;7.53;;
1350;SDS011;669;50.206;9.998;2023-08-06T03:18:32;6.77;;;6.10;;
1350;SDS011;669;50.206;9.998;2023-08-06T03:21:02;5.83;;;5.23;;
1350;SDS011;669;50.206;9.998;2023-08-06T03:23:30;6.23;;;5.63;;
1350;SDS011;669;50.206;9.998;2023-08-06T03:26:00;6.80;;;6.20;;
1350;SDS011;669;50.206;9.998;2023-08-06T03:28:29;6.23;;;5.63;;
1350;SDS011;669;50.206;9.998;2023-08-06T03:31:00;5.83;;;5.33;;
1350;SDS011;669;50.206;9.998;2023-08-06T03:33:28;4.83;;;4.43;;
1350;SDS011;669;50.206;9.998;2023-08-06T03:35:56;4.93;;;4.63;;
1350;SDS011;669;50.206;9.998;2023-08-06T03:38:26;4.73;;;4.43;;
1350;SDS011;669;50.206;9.998;2023-08-06T03:40:54;4.13;;;3.83;;
1350;SDS011;669;50.206;9.998;2023-08-06T03:43:22;4.20;;;3.90;;
1350;SDS011;669;50.206;9.998;2023-08-06T03:45:50;3.20;;;3.00;;
1350;SDS011;669;50.206;9.998;2023-08-06T03:48:18;5.20;;;3.97;;
1350;SDS011;669;50.206;9.998;2023-08-06T03:50:46;3.90;;;3.60;;
1350;SDS011;669;50.206;9.998;2023-08-06T03:53:17;4.23;;;3.83;;
1350;SDS011;669;50.206;9.998;2023-08-06T03:55:47;4.37;;;3.90;;
1350;SDS011;669;50.206;9.998;2023-08-06T03:58:15;3.30;;;3.10;;
1350;SDS011;669;50.206;9.998;2023-08-06T04:00:42;4.50;;;3.80;;
1350;SDS011;669;50.206;9.998;2023-08-06T04:03:10;3.53;;;3.30;;
1350;SDS011;669;50.206;9.998;2023-08-06T04:05:38;4.13;;;3.83;;
1350;SDS011;669;50.206;9.998;2023-08-06T04:08:06;4.80;;;4.40;;
1350;SDS011;669;50.206;9.998;2023-08-06T04:10:34;4.10;;;3.80;;
1350;SDS011;669;50.206;9.998;2023-08-06T04:13:04;5.20;;;4.70;;
1350;SDS011;669;50.206;9.998;2023-08-06T04:15:33;5.60;;;5.10;;
1350;SDS011;669;50.206;9.998;2023-08-06T04:18:01;5.57;;;5.07;;
1350;SDS011;669;50.206;9.998;2023-08-06T04:20:29;5.17;;;4.57;;
1350;SDS011;669;50.206;9.998;2023-08-06T04:22:57;4.80;;;3.70;;
1350;SDS011;669;50.206;9.998;2023-08-06T04:25:25;5.07;;;4.60;;
1350;SDS011;669;50.206;9.998;2023-08-06T04:27:53;4.57;;;4.17;;
1350;SDS011;669;50.206;9.998;2023-08-06T04:30:22;4.60;;;4.30;;
1350;SDS011;669;50.206;9.998;2023-08-06T04:32:50;4.47;;;4.17;;
1350;SDS011;669;50.206;9.998;2023-08-06T04:35:18;5.13;;;4.30;;
1350;SDS011;669;50.206;9.998;2023-08-06T04:37:46;4.27;;;3.97;;
1350;SDS011;669;50.206;9.998;2023-08-06T04:40:14;3.47;;;3.27;;
1350;SDS011;669;50.206;9.998;2023-08-06T04:42:42;3.97;;;3.67;;
1350;SDS011;669;50.206;9.998;2023-08-06T04:45:10;3.43;;;3.23;;
1350;SDS011;669;50.206;9.998;2023-08-06T04:47:39;3.50;;;3.13;;
1350;SDS011;669;50.206;9.998;2023-08-06T04:50:07;3.77;;;3.47;;
1350;SDS011;669;50.206;9.998;2023-08-06T04:52:35;3.60;;;3.30;;
1350;SDS011;669;50.206;9.998;2023-08-06T04:55:04;4.83;;;3.93;;
1350;SDS011;669;50.206;9.998;2023-08-06T04:57:33;4.70;;;3.57;;
1350;SDS011;669;50.206;9.998;2023-08-06T05:00:01;4.50;;;4.10;;
1350;SDS011;669;50.206;9.998;2023-08-06T05:02:30;4.20;;;3.90;;
1350;SDS011;669;50.206;9.998;2023-08-06T05:05:02;3.47;;;3.20;;
1350;SDS011;669;50.206;9.998;2023-08-06T05:07:30;3.43;;;3.23;;
1350;SDS011;669;50.206;9.998;2023-08-06T05:09:58;3.10;;;2.80;;
1350;SDS011;669;50.206;9.998;2023-08-06T05:12:26;3.70;;;3.40;;
1350;SDS011;669;50.206;9.998;2023-08-06T05:14:54;2.93;;;2.73;;
1350;SDS011;669;50.206;9.998;2023-08-06T05:17:22;3.13;;;2.83;;
1350;SDS011;669;50.206;9.998;2023-08-06T05:19:50;3.30;;;3.10;;
1350;SDS011;669;50.206;9.998;2023-08-06T05:22:19;3.17;;;2.97;;
1350;SDS011;669;50.206;9.998;2023-08-06T05:24:47;4.20;;;3.60;;
1350;SDS011;669;50.206;9.998;2023-08-06T05:27:15;3.20;;;3.00;;
1350;SDS011;669;50.206;9.998;2023-08-06T05:29:45;3.87;;;3.57;;
1350;SDS011;669;50.206;9.998;2023-08-06T05:32:13;3.27;;;3.07;;
1350;SDS011;669;50.206;9.998;2023-08-06T05:34:41;3.07;;;2.87;;
1350;SDS011;669;50.206;9.998;2023-08-06T05:37:09;2.47;;;2.37;;
1350;SDS011;669;50.206;9.998;2023-08-06T05:39:38;2.83;;;2.63;;
1350;SDS011;669;50.206;9.998;2023-08-06T05:42:06;2.43;;;2.23;;
1350;SDS011;669;50.206;9.998;2023-08-06T05:44:34;3.03;;;2.77;;
1350;SDS011;669;50.206;9.998;2023-08-06T05:47:02;3.47;;;2.67;;
1350;SDS011;669;50.206;9.998;2023-08-06T05:49:30;2.50;;;2.40;;
1350;SDS011;669;50.206;9.998;2023-08-06T05:51:58;2.27;;;2.17;;
1350;SDS011;669;50.206;9.998;2023-08-06T05:54:26;2.70;;;2.50;;
1350;SDS011;669;50.206;9.998;2023-08-06T05:56:55;1.97;;;1.87;;
1350;SDS011;669;50.206;9.998;2023-08-06T05:59:23;4.53;;;3.07;;
1350;SDS011;669;50.206;9.998;2023-08-06T06:01:51;2.67;;;2.57;;
1350;SDS011;669;50.206;9.998;2023-08-06T06:04:20;2.63;;;2.43;;
1350;SDS011;669;50.206;9.998;2023-08-06T06:06:49;2.60;;;2.40;;
1350;SDS011;669;50.206;9.998;2023-08-06T06:09:17;3.10;;;2.90;;
1350;SDS011;669;50.206;9.998;2023-08-06T06:11:45;2.90;;;2.70;;
1350;SDS011;669;50.206;9.998;2023-08-06T06:14:15;3.20;;;3.00;;
1350;SDS011;669;50.206;9.998;2023-08-06T06:16:43;2.17;;;2.07;;
1350;SDS011;669;50.206;9.998;2023-08-06T06:19:11;2.80;;;2.60;;
1350;SDS011;669;50.206;9.998;2023-08-06T06:21:39;2.50;;;2.40;;
1350;SDS011;669;50.206;9.998;2023-08-06T06:24:07;2.90;;;2.70;;
1350;SDS011;669;50.206;9.998;2023-08-06T06:26:35;4.23;;;3.30;;
1350;SDS011;669;50.206;9.998;2023-08-06T06:29:03;2.30;;;2.17;;
1350;SDS011;669;50.206;9.998;2023-08-06T06:31:35;2.80;;;2.60;;
1350;SDS011;669;50.206;9.998;2023-08-06T06:34:03;2.37;;;2.23;;
1350;SDS011;669;50.206;9.998;2023-08-06T06:36:30;2.67;;;2.43;;
1350;SDS011;669;50.206;9.998;2023-08-06T06:38:59;2.87;;;2.67;;
1350;SDS011;669;50.206;9.998;2023-08-06T06:41:27;3.47;;;2.63;;
1350;SDS011;669;50.206;9.998;2023-08-06T06:43:57;2.70;;;2.60;;
1350;SDS011;669;50.206;9.998;2023-08-06T06:46:25;3.10;;;2.80;;
1350;SDS011;669;50.206;9.998;2023-08-06T06:48:55;3.10;;;2.87;;
1350;SDS011;669;50.206;9.998;2023-08-06T06:51:23;3.20;;;2.53;;
1350;SDS011;669;50.206;9.998;2023-08-06T06:53:51;2.87;;;2.67;;
1350;SDS011;669;50.206;9.998;2023-08-06T06:56:18;2.37;;;2.20;;
1350;SDS011;669;50.206;9.998;2023-08-06T06:58:46;3.00;;;2.63;;
1350;SDS011;669;50.206;9.998;2023-08-06T07:01:14;3.73;;;2.33;;
1350;SDS011;669;50.206;9.998;2023-08-06T07:03:42;2.23;;;2.03;;
1350;SDS011;669;50.206;9.998;2023-08-06T07:06:12;2.40;;;2.20;;
1350;SDS011;669;50.206;9.998;2023-08-06T07:08:41;2.20;;;2.00;;
1350;SDS011;669;50.206;9.998;2023-08-06T07:11:09;2.77;;;2.30;;
1350;SDS011;669;50.206;9.998;2023-08-06T07:13:37;2.60;;;2.40;;
1350;SDS011;669;50.206;9.998;2023-08-06T07:16:05;2.70;;;2.17;;
1350;SDS011;669;50.206;9.998;2023-08-06T07:18:36;1.83;;;1.73;;
1350;SDS011;669;50.206;9.998;2023-08-06T07:21:04;2.87;;;2.30;;
1350;SDS011;669;50.206;9.998;2023-08-06T07:23:34;2.27;;;2.03;;
1350;SDS011;669;50.206;9.998;2023-08-06T07:26:02;2.10;;;1.77;;
1350;SDS011;669;50.206;9.998;2023-08-06T07:28:30;2.23;;;2.03;;
1350;SDS011;669;50.206;9.998;2023-08-06T07:30:58;2.67;;;2.27;;
1350;SDS011;669;50.206;9.998;2023-08-06T07:33:26;2.47;;;2.27;;
1350;SDS011;669;50.206;9.998;2023-08-06T07:35:54;2.23;;;2.13;;
1350;SDS011;669;50.206;9.998;2023-08-06T07:38:21;3.43;;;2.37;;
1350;SDS011;669;50.206;9.998;2023-08-06T07:40:51;2.50;;;2.40;;
1350;SDS011;669;50.206;9.998;2023-08-06T07:43:19;2.20;;;1.97;;
1350;SDS011;669;50.206;9.998;2023-08-06T07:45:47;2.13;;;2.00;;
1350;SDS011;669;50.206;9.998;2023-08-06T07:48:15;2.63;;;2.43;;
1350;SDS011;669;50.206;9.998;2023-08-06T07:50:43;3.80;;;2.30;;
1350;SDS011;669;50.206;9.998;2023-08-06T07:53:16;4.33;;;2.07;;
1350;SDS011;669;50.206;9.998;2023-08-06T07:55:47;2.73;;;2.00;;
1350;SDS011;669;50.206;9.998;2023-08-06T07:58:18;4.97;;;1.70;;
1350;SDS011;669;50.206;9.998;2023-08-06T08:00:46;4.70;;;2.20;;
1350;SDS011;669;50.206;9.998;2023-08-06T08:03:15;2.40;;;2.00;;
1350;SDS011;669;50.206;9.998;2023-08-06T08:05:43;2.37;;;2.10;;
1350;SDS011;669;50.206;9.998;2023-08-06T08:08:12;2.20;;;2.00;;
1350;SDS011;669;50.206;9.998;2023-08-06T08:10:40;2.60;;;1.77;;
1350;SDS011;669;50.206;9.998;2023-08-06T08:13:10;3.30;;;2.33;;
1350;SDS011;669;50.206;9.998;2023-08-06T08:15:38;1.73;;;1.63;;
1350;SDS011;669;50.206;9.998;2023-08-06T08:18:06;1.80;;;1.60;;
1350;SDS011;669;50.206;9.998;2023-08-06T08:20:34;1.80;;;1.70;;
1350;SDS011;669;50.206;9.998;2023-08-06T08:23:02;1.40;;;1.30;;
1350;SDS011;669;50.206;9.998;2023-08-06T08:25:30;2.13;;;1.40;;
1350;SDS011;669;50.206;9.998;2023-08-06T08:28:00;2.20;;;1.50;;
1350;SDS011;669;50.206;9.998;2023-08-06T08:30:29;1.63;;;1.60;;
1350;SDS011;669;50.206;9.998;2023-08-06T08:32:57;1.67;;;1.57;;
1350;SDS011;669;50.206;9.998;2023-08-06T08:35:25;1.70;;;1.60;;
1350;SDS011;669;50.206;9.998;2023-08-06T08:37:53;2.40;;;1.53;;
1350;SDS011;669;50.206;9.998;2023-08-06T08:40:21;1.77;;;1.37;;
1350;SDS011;669;50.206;9.998;2023-08-06T08:42:52;1.60;;;1.20;;
1350;SDS011;669;50.206;9.998;2023-08-06T08:45:20;2.30;;;1.10;;
1350;SDS011;669;50.206;9.998;2023-08-06T08:47:52;1.70;;;1.00;;
1350;SDS011;669;50.206;9.998;2023-08-06T08:50:20;1.07;;;0.93;;
1350;SDS011;669;50.206;9.998;2023-08-06T08:52:49;1.30;;;1.23;;
1350;SDS011;669;50.206;9.998;2023-08-06T08:55:18;0.93;;;0.93;;
1350;SDS011;669;50.206;9.998;2023-08-06T08:57:47;1.23;;;1.23;;
1350;SDS011;669;50.206;9.998;2023-08-06T09:00:16;1.30;;;1.20;;
1350;SDS011;669;50.206;9.998;2023-08-06T09:02:44;1.40;;;0.97;;
1350;SDS011;669;50.206;9.998;2023-08-06T09:05:15;1.00;;;1.00;;
1350;SDS011;669;50.206;9.998;2023-08-06T09:07:46;0.70;;;0.70;;
1350;SDS011;669;50.206;9.998;2023-08-06T09:10:16;0.77;;;0.77;;
1350;SDS011;669;50.206;9.998;2023-08-06T09:12:45;7.00;;;0.73;;
1350;SDS011;669;50.206;9.998;2023-08-06T09:15:16;0.80;;;0.80;;
1350;SDS011;669;50.206;9.998;2023-08-06T09:17:44;1.27;;;0.60;;
1350;SDS011;669;50.206;9.998;2023-08-06T09:20:12;0.40;;;0.40;;
1350;SDS011;669;50.206;9.998;2023-08-06T09:22:42;0.37;;;0.37;;
1350;SDS011;669;50.206;9.998;2023-08-06T09:25:10;0.90;;;0.60;;
1350;SDS011;669;50.206;9.998;2023-08-06T09:27:40;0.33;;;0.33;;
1350;SDS011;669;50.206;9.998;2023-08-06T09:30:08;0.63;;;0.63;;
1350;SDS011;669;50.206;9.998;2023-08-06T09:32:44;0.57;;;0.57;;
1350;SDS011;669;50.206;9.998;2023-08-06T09:35:15;0.30;;;0.30;;
1350;SDS011;669;50.206;9.998;2023-08-06T09:37:45;0.60;;;0.60;;
1350;SDS011;669;50.206;9.998;2023-08-06T09:40:24;0.40;;;0.40;;
1350;SDS011;669;50.206;9.998;2023-08-06T09:42:53;0.30;;;0.30;;
1350;SDS011;669;50.206;9.998;2023-08-06T09:45:21;0.50;;;0.37;;
1350;SDS011;669;50.206;9.998;2023-08-06T09:47:49;0.30;;;0.30;;
1350;SDS011;669;50.206;9.998;2023-08-06T09:50:17;0.50;;;0.30;;
1350;SDS011;669;50.206;9.998;2023-08-06T09:52:47;0.30;;;0.30;;
1350;SDS011;669;50.206;9.998;2023-08-06T09:55:15;1.00;;;0.50;;
1350;SDS011;669;50.206;9.998;2023-08-06T09:57:43;0.67;;;0.40;;
1350;SDS011;669;50.206;9.998;2023-08-06T10:00:11;0.93;;;0.47;;
1350;SDS011;669;50.206;9.998;2023-08-06T10:02:40;0.40;;;0.40;;
1350;SDS011;669;50.206;9.998;2023-08-06T10:05:08;0.40;;;0.40;;
1350;SDS011;669;50.206;9.998;2023-08-06T10:07:37;0.53;;;0.53;;
1350;SDS011;669;50.206;9.998;2023-08-06T10:10:08;0.40;;;0.40;;
1350;SDS011;669;50.206;9.998;2023-08-06T10:12:37;0.40;;;0.40;;
1350;SDS011;669;50.206;9.998;2023-08-06T10:15:10;0.57;;;0.57;;
1350;SDS011;669;50.206;9.998;2023-08-06T10:17:41;0.60;;;0.60;;
1350;SDS011;669;50.206;9.998;2023-08-06T10:20:17;0.30;;;0.30;;
1350;SDS011;669;50.206;9.998;2023-08-06T10:22:47;0.60;;;0.40;;
1350;SDS011;669;50.206;9.998;2023-08-06T10:25:31;0.50;;;0.50;;
1350;SDS011;669;50.206;9.998;2023-08-06T10:28:01;0.40;;;0.40;;
1350;SDS011;669;50.206;9.998;2023-08-06T10:30:41;0.60;;;0.60;;
1350;SDS011;669;50.206;9.998;2023-08-06T10:33:09;0.47;;;0.47;;
1350;SDS011;669;50.206;9.998;2023-08-06T10:35:38;0.40;;;0.40;;
1350;SDS011;669;50.206;9.998;2023-08-06T10:38:11;0.37;;;0.37;;
1350;SDS011;669;50.206;9.998;2023-08-06T10:40:43;0.40;;;0.40;;
1350;SDS011;669;50.206;9.998;2023-08-06T10:43:24;1.30;;;0.60;;
1350;SDS011;669;50.206;9.998;2023-08-06T10:45:53;0.67;;;0.60;;
1350;SDS011;669;50.206;9.998;2023-08-06T10:51:08;0.50;;;0.50;;
1350;SDS011;669;50.206;9.998;2023-08-06T10:53:36;0.70;;;0.50;;
1350;SDS011;669;50.206;9.998;2023-08-06T10:56:13;0.60;;;0.60;;
1350;SDS011;669;50.206;9.998;2023-08-06T10:58:41;0.57;;;0.57;;
1350;SDS011;669;50.206;9.998;2023-08-06T11:01:09;0.67;;;0.60;;
1350;SDS011;669;50.206;9.998;2023-08-06T11:03:38;0.63;;;0.40;;
1350;SDS011;669;50.206;9.998;2023-08-06T11:06:07;0.50;;;0.50;;
1350;SDS011;669;50.206;9.998;2023-08-06T11:08:35;1.13;;;0.50;;
1350;SDS011;669;50.206;9.998;2023-08-06T11:11:08;0.60;;;0.60;;
1350;SDS011;669;50.206;9.998;2023-08-06T11:13:41;0.40;;;0.40;;
1350;SDS011;669;50.206;9.998;2023-08-06T11:16:10;1.03;;;0.70;;
1350;SDS011;669;50.206;9.998;2023-08-06T11:18:39;0.60;;;0.60;;
1350;SDS011;669;50.206;9.998;2023-08-06T11:21:07;0.50;;;0.50;;
1350;SDS011;669;50.206;9.998;2023-08-06T11:23:35;0.60;;;0.60;;
1350;SDS011;669;50.206;9.998;2023-08-06T11:26:03;0.63;;;0.63;;
1350;SDS011;669;50.206;9.998;2023-08-06T11:28:31;0.53;;;0.53;;
1350;SDS011;669;50.206;9.998;2023-08-06T11:31:01;0.87;;;0.53;;
1350;SDS011;669;50.206;9.998;2023-08-06T11:33:30;2.00;;;0.60;;
1350;SDS011;669;50.206;9.998;2023-08-06T11:35:58;0.80;;;0.80;;
1350;SDS011;669;50.206;9.998;2023-08-06T11:38:28;0.60;;;0.60;;
1350;SDS011;669;50.206;9.998;2023-08-06T11:40:56;0.60;;;0.60;;
1350;SDS011;669;50.206;9.998;2023-08-06T11:43:25;0.60;;;0.60;;
1350;SDS011;669;50.206;9.998;2023-08-06T11:45:54;0.40;;;0.40;;
1350;SDS011;669;50.206;9.998;2023-08-06T11:48:25;0.67;;;0.67;;
1350;SDS011;669;50.206;9.998;2023-08-06T11:50:53;0.83;;;0.80;;
1350;SDS011;669;50.206;9.998;2023-08-06T11:53:21;1.00;;;1.00;;
1350;SDS011;669;50.206;9.998;2023-08-06T11:55:54;0.40;;;0.40;;
1350;SDS011;669;50.206;9.998;2023-08-06T11:58:23;0.67;;;0.67;;
1350;SDS011;669;50.206;9.998;2023-08-06T12:00:51;0.33;;;0.33;;
1350;SDS011;669;50.206;9.998;2023-08-06T12:03:20;3.70;;;0.70;;
1350;SDS011;669;50.206;9.998;2023-08-06T12:05:54;0.57;;;0.57;;
1350;SDS011;669;50.206;9.998;2023-08-06T12:08:26;0.60;;;0.50;;
1350;SDS011;669;50.206;9.998;2023-08-06T12:10:54;0.60;;;0.60;;
1350;SDS011;669;50.206;9.998;2023-08-06T12:13:22;0.50;;;0.50;;
1350;SDS011;669;50.206;9.998;2023-08-06T12:15:50;0.50;;;0.50;;
1350;SDS011;669;50.206;9.998;2023-08-06T12:18:19;0.50;;;0.50;;
1350;SDS011;669;50.206;9.998;2023-08-06T12:20:48;0.87;;;0.40;;
1350;SDS011;669;50.206;9.998;2023-08-06T12:23:17;0.50;;;0.50;;
1350;SDS011;669;50.206;9.998;2023-08-06T12:25:45;0.40;;;0.40;;
1350;SDS011;669;50.206;9.998;2023-08-06T12:28:13;0.40;;;0.40;;
1350;SDS011;669;50.206;9.998;2023-08-06T12:30:41;1.33;;;0.33;;
1350;SDS011;669;50.206;9.998;2023-08-06T12:33:11;0.80;;;0.60;;
1350;SDS011;669;50.206;9.998;2023-08-06T12:35:39;0.53;;;0.50;;
1350;SDS011;669;50.206;9.998;2023-08-06T12:38:07;0.87;;;0.83;;
1350;SDS011;669;50.206;9.998;2023-08-06T12:40:36;0.60;;;0.60;;
1350;SDS011;669;50.206;9.998;2023-08-06T12:43:08;0.73;;;0.57;;
1350;SDS011;669;50.206;9.998;2023-08-06T12:45:36;0.70;;;0.63;;
1350;SDS011;669;50.206;9.998;2023-08-06T12:48:04;0.73;;;0.50;;
1350;SDS011;669;50.206;9.998;2023-08-06T12:50:32;0.53;;;0.50;;
1350;SDS011;669;50.206;9.998;2023-08-06T12:53:01;1.90;;;0.40;;
1350;SDS011;669;50.206;9.998;2023-08-06T12:55:30;0.70;;;0.70;;
1350;SDS011;669;50.206;9.998;2023-08-06T12:58:00;0.50;;;0.50;;
1350;SDS011;669;50.206;9.998;2023-08-06T13:00:28;0.50;;;0.50;;
1350;SDS011;669;50.206;9.998;2023-08-06T13:02:57;2.47;;;0.60;;
1350;SDS011;669;50.206;9.998;2023-08-06T13:05:25;0.40;;;0.40;;
1350;SDS011;669;50.206;9.998;2023-08-06T13:07:53;0.43;;;0.43;;
1350;SDS011;669;50.206;9.998;2023-08-06T13:10:21;0.53;;;0.53;;
1350;SDS011;669;50.206;9.998;2023-08-06T13:12:50;1.33;;;0.60;;
1350;SDS011;669;50.206;9.998;2023-08-06T13:15:20;0.73;;;0.73;;
1350;SDS011;669;50.206;9.998;2023-08-06T13:17:48;0.40;;;0.40;;
1350;SDS011;669;50.206;9.998;2023-08-06T13:20:16;1.80;;;0.60;;
1350;SDS011;669;50.206;9.998;2023-08-06T13:22:46;1.27;;;0.80;;
1350;SDS011;669;50.206;9.998;2023-08-06T13:25:17;0.70;;;0.70;;
1350;SDS011;669;50.206;9.998;2023-08-06T13:27:45;0.47;;;0.40;;
1350;SDS011;669;50.206;9.998;2023-08-06T13:30:14;0.40;;;0.40;;
1350;SDS011;669;50.206;9.998;2023-08-06T13:32:44;0.50;;;0.40;;
1350;SDS011;669;50.206;9.998;2023-08-06T13:35:12;0.40;;;0.40;;
1350;SDS011;669;50.206;9.998;2023-08-06T13:37:40;0.40;;;0.40;;
1350;SDS011;669;50.206;9.998;2023-08-06T13:40:08;0.57;;;0.57;;
1350;SDS011;669;50.206;9.998;2023-08-06T13:42:36;0.70;;;0.70;;
1350;SDS011;669;50.206;9.998;2023-08-06T13:45:04;0.40;;;0.40;;
1350;SDS011;669;50.206;9.998;2023-08-06T13:47:33;0.30;;;0.30;;
1350;SDS011;669;50.206;9.998;2023-08-06T13:50:03;2.83;;;0.40;;
1350;SDS011;669;50.206;9.998;2023-08-06T13:52:32;0.30;;;0.30;;
1350;SDS011;669;50.206;9.998;2023-08-06T13:55:01;1.80;;;0.40;;
1350;SDS011;669;50.206;9.998;2023-08-06T13:57:30;1.60;;;0.40;;
1350;SDS011;669;50.206;9.998;2023-08-06T13:59:58;0.40;;;0.30;;
1350;SDS011;669;50.206;9.998;2023-08-06T14:02:26;0.30;;;0.30;;
1350;SDS011;669;50.206;9.998;2023-08-06T14:04:54;0.30;;;0.30;;
1350;SDS011;669;50.206;9.998;2023-08-06T14:07:24;0.50;;;0.30;;
1350;SDS011;669;50.206;9.998;2023-08-06T14:09:52;0.30;;;0.27;;
1350;SDS011;669;50.206;9.998;2023-08-06T14:12:20;0.20;;;0.20;;
1350;SDS011;669;50.206;9.998;2023-08-06T14:14:48;0.23;;;0.20;;
1350;SDS011;669;50.206;9.998;2023-08-06T14:17:16;1.13;;;0.40;;
1350;SDS011;669;50.206;9.998;2023-08-06T14:19:44;0.93;;;0.93;;
1350;SDS011;669;50.206;9.998;2023-08-06T14:22:12;0.53;;;0.33;;
1350;SDS011;669;50.206;9.998;2023-08-06T14:24:41;0.30;;;0.30;;
1350;SDS011;669;50.206;9.998;2023-08-06T14:27:09;0.60;;;0.47;;
1350;SDS011;669;50.206;9.998;2023-08-06T14:29:37;0.23;;;0.23;;
1350;SDS011;669;50.206;9.998;2023-08-06T14:32:06;0.40;;;0.40;;
1350;SDS011;669;50.206;9.998;2023-08-06T14:34:34;0.90;;;0.90;;
1350;SDS011;669;50.206;9.998;2023-08-06T14:37:02;0.57;;;0.57;;
1350;SDS011;669;50.206;9.998;2023-08-06T14:39:30;1.60;;;0.40;;
1350;SDS011;669;50.206;9.998;2023-08-06T14:42:00;1.83;;;0.30;;
1350;SDS011;669;50.206;9.998;2023-08-06T14:44:28;2.90;;;0.53;;
1350;SDS011;669;50.206;9.998;2023-08-06T14:46:56;0.50;;;0.30;;
1350;SDS011;669;50.206;9.998;2023-08-06T14:49:24;0.40;;;0.40;;
1350;SDS011;669;50.206;9.998;2023-08-06T14:51:52;0.30;;;0.30;;
1350;SDS011;669;50.206;9.998;2023-08-06T14:54:20;0.93;;;0.40;;
1350;SDS011;669;50.206;9.998;2023-08-06T14:56:49;2.23;;;0.30;;
1350;SDS011;669;50.206;9.998;2023-08-06T14:59:19;0.30;;;0.30;;
1350;SDS011;669;50.206;9.998;2023-08-06T15:01:47;1.17;;;0.37;;
1350;SDS011;669;50.206;9.998;2023-08-06T15:04:20;0.63;;;0.43;;
1350;SDS011;669;50.206;9.998;2023-08-06T15:06:49;0.50;;;0.50;;
1350;SDS011;669;50.206;9.998;2023-08-06T15:09:18;0.80;;;0.80;;
1350;SDS011;669;50.206;9.998;2023-08-06T15:11:48;2.40;;;2.03;;
1350;SDS011;669;50.206;9.998;2023-08-06T15:14:16;1.67;;;0.67;;
1350;SDS011;669;50.206;9.998;2023-08-06T15:16:46;0.40;;;0.40;;
1350;SDS011;669;50.206;9.998;2023-08-06T15:19:14;0.40;;;0.40;;
1350;SDS011;669;50.206;9.998;2023-08-06T15:21:42;1.20;;;0.43;;
1350;SDS011;669;50.206;9.998;2023-08-06T15:24:10;0.40;;;0.40;;
1350;SDS011;669;50.206;9.998;2023-08-06T15:26:39;0.30;;;0.30;;
1350;SDS011;669;50.206;9.998;2023-08-06T15:29:07;0.40;;;0.40;;
1350;SDS011;669;50.206;9.998;2023-08-06T15:31:36;0.40;;;0.40;;
1350;SDS011;669;50.206;9.998;2023-08-06T15:34:06;0.40;;;0.40;;
1350;SDS011;669;50.206;9.998;2023-08-06T15:36:35;0.30;;;0.30;;
1350;SDS011;669;50.206;9.998;2023-08-06T15:39:03;0.33;;;0.33;;
1350;SDS011;669;50.206;9.998;2023-08-06T15:41:31;0.40;;;0.40;;
1350;SDS011;669;50.206;9.998;2023-08-06T15:43:59;0.60;;;0.60;;